sensor_id;sensor_type;location;lat;lon;timestamp;temperature;humidity
37956;DHT22;23776;51.592;7.180;2023-12-04T00:00:05;1.30;1.00
37956;DHT22;23776;51.592;7.180;2023-12-04T00:02:32;1.30;1.00
37956;DHT22;23776;51.592;7.180;2023-12-04T00:04:57;1.40;1.00
37956;DHT22;23776;51.592;7.180;2023-12-04T00:07:23;1.40;1.00
37956;DHT22;23776;51.592;7.180;2023-12-04T00:09:48;1.30;1.00
37956;DHT22;23776;51.592;7.180;2023-12-04T00:12:14;1.30;1.00
37956;DHT22;23776;51.592;7.180;2023-12-04T00:14:40;1.30;1.00
37956;DHT22;23776;51.592;7.180;2023-12-04T00:17:05;1.30;1.00
37956;DHT22;23776;51.592;7.180;2023-12-04T00:19:31;1.30;1.00
37956;DHT22;23776;51.592;7.180;2023-12-04T00:21:56;1.30;1.00
37956;DHT22;23776;51.592;7.180;2023-12-04T00:24:22;1.40;1.00
37956;DHT22;23776;51.592;7.180;2023-12-04T00:26:47;1.30;1.00
37956;DHT22;23776;51.592;7.180;2023-12-04T00:29:13;1.30;1.00
37956;DHT22;23776;51.592;7.180;2023-12-04T00:31:38;1.30;1.00
37956;DHT22;23776;51.592;7.180;2023-12-04T00:34:04;1.30;1.00
37956;DHT22;23776;51.592;7.180;2023-12-04T00:36:29;1.40;1.00
37956;DHT22;23776;51.592;7.180;2023-12-04T00:38:55;1.40;1.00
37956;DHT22;23776;51.592;7.180;2023-12-04T00:41:20;1.40;1.00
37956;DHT22;23776;51.592;7.180;2023-12-04T00:43:46;1.40;1.00
37956;DHT22;23776;51.592;7.180;2023-12-04T00:46:11;1.40;1.00
37956;DHT22;23776;51.592;7.180;2023-12-04T00:48:37;1.40;1.00
37956;DHT22;23776;51.592;7.180;2023-12-04T00:51:02;1.40;1.00
37956;DHT22;23776;51.592;7.180;2023-12-04T00:53:28;1.30;1.00
37956;DHT22;23776;51.592;7.180;2023-12-04T00:55:54;1.30;1.00
37956;DHT22;23776;51.592;7.180;2023-12-04T00:58:19;1.40;1.00
37956;DHT22;23776;51.592;7.180;2023-12-04T01:00:45;1.30;1.00
37956;DHT22;23776;51.592;7.180;2023-12-04T01:03:10;1.30;1.00
37956;DHT22;23776;51.592;7.180;2023-12-04T01:05:36;1.40;1.00
37956;DHT22;23776;51.592;7.180;2023-12-04T01:08:02;1.30;1.00
37956;DHT22;23776;51.592;7.180;2023-12-04T01:10:27;1.40;1.00
37956;DHT22;23776;51.592;7.180;2023-12-04T01:12:53;1.40;99.90
37956;DHT22;23776;51.592;7.180;2023-12-04T01:15:18;1.40;99.90
37956;DHT22;23776;51.592;7.180;2023-12-04T01:17:44;1.40;99.90
37956;DHT22;23776;51.592;7.180;2023-12-04T01:20:10;1.40;99.90
37956;DHT22;23776;51.592;7.180;2023-12-04T01:22:35;1.40;99.90
37956;DHT22;23776;51.592;7.180;2023-12-04T01:25:01;1.40;99.90
37956;DHT22;23776;51.592;7.180;2023-12-04T01:27:28;1.40;99.90
37956;DHT22;23776;51.592;7.180;2023-12-04T01:29:53;1.40;99.90
37956;DHT22;23776;51.592;7.180;2023-12-04T01:32:19;1.40;99.90
37956;DHT22;23776;51.592;7.180;2023-12-04T01:34:44;1.50;99.90
37956;DHT22;23776;51.592;7.180;2023-12-04T01:37:11;1.50;99.90
37956;DHT22;23776;51.592;7.180;2023-12-04T01:39:37;1.50;99.90
37956;DHT22;23776;51.592;7.180;2023-12-04T01:42:03;1.50;99.90
37956;DHT22;23776;51.592;7.180;2023-12-04T01:44:28;1.50;99.90
37956;DHT22;23776;51.592;7.180;2023-12-04T01:46:54;1.50;99.90
37956;DHT22;23776;51.592;7.180;2023-12-04T01:49:20;1.50;99.90
37956;DHT22;23776;51.592;7.180;2023-12-04T01:51:46;1.50;99.90
37956;DHT22;23776;51.592;7.180;2023-12-04T01:54:12;1.50;99.90
37956;DHT22;23776;51.592;7.180;2023-12-04T01:56:38;1.50;1.00
37956;DHT22;23776;51.592;7.180;2023-12-04T01:59:04;1.40;99.90
37956;DHT22;23776;51.592;7.180;2023-12-04T02:01:30;1.40;99.90
37956;DHT22;23776;51.592;7.180;2023-12-04T02:03:56;1.30;99.90
37956;DHT22;23776;51.592;7.180;2023-12-04T02:06:23;1.40;99.90
37956;DHT22;23776;51.592;7.180;2023-12-04T02:08:48;1.30;1.00
37956;DHT22;23776;51.592;7.180;2023-12-04T02:11:14;1.40;1.00
37956;DHT22;23776;51.592;7.180;2023-12-04T02:13:40;1.40;1.00
37956;DHT22;23776;51.592;7.180;2023-12-04T02:16:09;1.30;1.00
37956;DHT22;23776;51.592;7.180;2023-12-04T02:18:35;1.30;1.00
37956;DHT22;23776;51.592;7.180;2023-12-04T02:21:01;1.30;1.00
37956;DHT22;23776;51.592;7.180;2023-12-04T02:23:27;1.40;1.00
37956;DHT22;23776;51.592;7.180;2023-12-04T02:26:00;2.20;1.00
37956;DHT22;23776;51.592;7.180;2023-12-04T02:28:30;1.30;1.00
37956;DHT22;23776;51.592;7.180;2023-12-04T02:30:58;1.30;1.00
37956;DHT22;23776;51.592;7.180;2023-12-04T02:33:25;1.40;1.00
37956;DHT22;23776;51.592;7.180;2023-12-04T02:35:51;1.40;1.00
37956;DHT22;23776;51.592;7.180;2023-12-04T02:38:18;1.30;1.00
37956;DHT22;23776;51.592;7.180;2023-12-04T02:40:44;1.30;1.00
37956;DHT22;23776;51.592;7.180;2023-12-04T02:43:10;1.30;1.00
37956;DHT22;23776;51.592;7.180;2023-12-04T02:45:36;1.40;1.00
37956;DHT22;23776;51.592;7.180;2023-12-04T02:48:01;1.40;1.00
37956;DHT22;23776;51.592;7.180;2023-12-04T02:50:27;1.40;1.00
37956;DHT22;23776;51.592;7.180;2023-12-04T02:52:52;1.40;1.00
37956;DHT22;23776;51.592;7.180;2023-12-04T02:55:19;1.30;1.00
37956;DHT22;23776;51.592;7.180;2023-12-04T02:57:44;1.30;1.00
37956;DHT22;23776;51.592;7.180;2023-12-04T03:00:10;1.40;1.00
37956;DHT22;23776;51.592;7.180;2023-12-04T03:02:36;1.30;1.00
37956;DHT22;23776;51.592;7.180;2023-12-04T03:05:02;1.30;1.00
37956;DHT22;23776;51.592;7.180;2023-12-04T03:07:27;1.30;1.00
37956;DHT22;23776;51.592;7.180;2023-12-04T03:09:53;1.30;99.90
37956;DHT22;23776;51.592;7.180;2023-12-04T03:12:18;1.30;99.90
37956;DHT22;23776;51.592;7.180;2023-12-04T03:14:44;1.30;99.90
37956;DHT22;23776;51.592;7.180;2023-12-04T03:17:09;1.40;99.90
37956;DHT22;23776;51.592;7.180;2023-12-04T03:19:35;1.40;99.90
37956;DHT22;23776;51.592;7.180;2023-12-04T03:22:01;1.40;53.30
37956;DHT22;23776;51.592;7.180;2023-12-04T03:24:27;1.40;25.60
37956;DHT22;23776;51.592;7.180;2023-12-04T03:26:52;1.50;55.10
37956;DHT22;23776;51.592;7.180;2023-12-04T03:29:18;1.50;33.00
37956;DHT22;23776;51.592;7.180;2023-12-04T03:31:43;1.50;99.90
37956;DHT22;23776;51.592;7.180;2023-12-04T03:34:09;1.50;1.00
37956;DHT22;23776;51.592;7.180;2023-12-04T03:36:34;1.50;99.90
37956;DHT22;23776;51.592;7.180;2023-12-04T03:39:00;1.50;99.90
37956;DHT22;23776;51.592;7.180;2023-12-04T03:41:25;1.60;99.90
37956;DHT22;23776;51.592;7.180;2023-12-04T03:43:51;1.60;1.00
37956;DHT22;23776;51.592;7.180;2023-12-04T03:46:17;1.20;99.90
37956;DHT22;23776;51.592;7.180;2023-12-04T03:48:42;1.60;99.90
37956;DHT22;23776;51.592;7.180;2023-12-04T03:51:08;1.60;99.90
37956;DHT22;23776;51.592;7.180;2023-12-04T03:53:33;1.60;32.90
37956;DHT22;23776;51.592;7.180;2023-12-04T03:55:59;1.60;1.00
37956;DHT22;23776;51.592;7.180;2023-12-04T03:58:25;1.60;99.90
37956;DHT22;23776;51.592;7.180;2023-12-04T04:00:50;1.60;99.90
37956;DHT22;23776;51.592;7.180;2023-12-04T04:03:16;1.60;1.00
37956;DHT22;23776;51.592;7.180;2023-12-04T04:05:41;1.70;99.90
37956;DHT22;23776;51.592;7.180;2023-12-04T04:08:07;1.70;99.90
37956;DHT22;23776;51.592;7.180;2023-12-04T04:10:33;1.70;99.90
37956;DHT22;23776;51.592;7.180;2023-12-04T04:12:59;1.80;1.00
37956;DHT22;23776;51.592;7.180;2023-12-04T04:15:25;1.70;99.90
37956;DHT22;23776;51.592;7.180;2023-12-04T04:17:51;1.80;99.90
37956;DHT22;23776;51.592;7.180;2023-12-04T04:20:16;1.90;99.90
37956;DHT22;23776;51.592;7.180;2023-12-04T04:22:42;1.80;99.90
37956;DHT22;23776;51.592;7.180;2023-12-04T04:25:08;1.90;29.90
37956;DHT22;23776;51.592;7.180;2023-12-04T04:27:35;1.90;1.00
37956;DHT22;23776;51.592;7.180;2023-12-04T04:30:01;2.00;1.00
37956;DHT22;23776;51.592;7.180;2023-12-04T04:32:27;1.90;99.90
37956;DHT22;23776;51.592;7.180;2023-12-04T04:34:53;1.90;99.90
37956;DHT22;23776;51.592;7.180;2023-12-04T04:37:19;1.90;99.90
37956;DHT22;23776;51.592;7.180;2023-12-04T04:39:45;1.90;1.00
37956;DHT22;23776;51.592;7.180;2023-12-04T04:42:11;2.00;99.90
37956;DHT22;23776;51.592;7.180;2023-12-04T04:44:36;2.00;99.90
37956;DHT22;23776;51.592;7.180;2023-12-04T04:47:02;2.00;1.00
37956;DHT22;23776;51.592;7.180;2023-12-04T04:49:28;2.00;23.40
37956;DHT22;23776;51.592;7.180;2023-12-04T04:51:53;2.00;1.00
37956;DHT22;23776;51.592;7.180;2023-12-04T04:54:19;2.00;99.90
37956;DHT22;23776;51.592;7.180;2023-12-04T04:56:45;2.00;99.90
37956;DHT22;23776;51.592;7.180;2023-12-04T04:59:10;2.10;82.50
37956;DHT22;23776;51.592;7.180;2023-12-04T05:01:36;2.10;99.90
37956;DHT22;23776;51.592;7.180;2023-12-04T05:04:02;2.10;1.00
37956;DHT22;23776;51.592;7.180;2023-12-04T05:06:28;2.10;99.90
37956;DHT22;23776;51.592;7.180;2023-12-04T05:08:54;2.00;1.00
37956;DHT22;23776;51.592;7.180;2023-12-04T05:11:19;2.00;11.50
37956;DHT22;23776;51.592;7.180;2023-12-04T05:13:45;2.10;35.30
37956;DHT22;23776;51.592;7.180;2023-12-04T05:16:11;2.10;99.90
37956;DHT22;23776;51.592;7.180;2023-12-04T05:18:38;2.10;79.90
37956;DHT22;23776;51.592;7.180;2023-12-04T05:21:03;2.10;1.00
37956;DHT22;23776;51.592;7.180;2023-12-04T05:23:33;2.20;1.00
37956;DHT22;23776;51.592;7.180;2023-12-04T05:25:59;2.20;99.90
37956;DHT22;23776;51.592;7.180;2023-12-04T05:28:25;2.20;99.90
37956;DHT22;23776;51.592;7.180;2023-12-04T05:30:51;2.20;99.90
37956;DHT22;23776;51.592;7.180;2023-12-04T05:33:16;2.20;99.90
37956;DHT22;23776;51.592;7.180;2023-12-04T05:35:42;2.20;99.90
37956;DHT22;23776;51.592;7.180;2023-12-04T05:38:07;2.20;99.90
37956;DHT22;23776;51.592;7.180;2023-12-04T05:40:34;2.20;55.20
37956;DHT22;23776;51.592;7.180;2023-12-04T05:42:59;2.20;16.10
37956;DHT22;23776;51.592;7.180;2023-12-04T05:45:25;2.20;1.00
37956;DHT22;23776;51.592;7.180;2023-12-04T05:47:50;2.30;1.00
37956;DHT22;23776;51.592;7.180;2023-12-04T05:50:18;2.30;1.00
37956;DHT22;23776;51.592;7.180;2023-12-04T05:52:43;2.40;99.90
37956;DHT22;23776;51.592;7.180;2023-12-04T05:55:10;2.40;99.90
37956;DHT22;23776;51.592;7.180;2023-12-04T05:57:35;2.40;99.90
37956;DHT22;23776;51.592;7.180;2023-12-04T06:00:01;2.40;1.00
37956;DHT22;23776;51.592;7.180;2023-12-04T06:02:26;2.30;99.90
37956;DHT22;23776;51.592;7.180;2023-12-04T06:04:55;0.80;99.90
37956;DHT22;23776;51.592;7.180;2023-12-04T06:07:20;2.40;99.90
37956;DHT22;23776;51.592;7.180;2023-12-04T06:09:46;2.30;1.00
37956;DHT22;23776;51.592;7.180;2023-12-04T06:12:12;2.30;1.00
37956;DHT22;23776;51.592;7.180;2023-12-04T06:14:37;2.30;99.90
37956;DHT22;23776;51.592;7.180;2023-12-04T06:17:03;2.30;99.90
37956;DHT22;23776;51.592;7.180;2023-12-04T06:19:28;2.20;1.00
37956;DHT22;23776;51.592;7.180;2023-12-04T06:21:57;2.30;1.00
37956;DHT22;23776;51.592;7.180;2023-12-04T06:24:23;2.30;99.90
37956;DHT22;23776;51.592;7.180;2023-12-04T06:26:50;2.30;1.00
37956;DHT22;23776;51.592;7.180;2023-12-04T06:29:17;2.30;99.90
37956;DHT22;23776;51.592;7.180;2023-12-04T06:31:43;2.30;99.90
37956;DHT22;23776;51.592;7.180;2023-12-04T06:34:08;2.30;99.90
37956;DHT22;23776;51.592;7.180;2023-12-04T06:36:38;2.40;1.00
37956;DHT22;23776;51.592;7.180;2023-12-04T06:39:06;2.40;1.00
37956;DHT22;23776;51.592;7.180;2023-12-04T06:41:34;2.40;99.90
37956;DHT22;23776;51.592;7.180;2023-12-04T06:43:59;2.40;99.90
37956;DHT22;23776;51.592;7.180;2023-12-04T06:46:28;2.40;99.90
37956;DHT22;23776;51.592;7.180;2023-12-04T06:48:57;2.40;99.90
37956;DHT22;23776;51.592;7.180;2023-12-04T06:51:24;2.40;1.00
37956;DHT22;23776;51.592;7.180;2023-12-04T06:53:50;2.30;24.10
37956;DHT22;23776;51.592;7.180;2023-12-04T06:56:16;2.30;97.30
37956;DHT22;23776;51.592;7.180;2023-12-04T06:58:41;2.30;17.00
37956;DHT22;23776;51.592;7.180;2023-12-04T07:01:07;2.20;1.00
37956;DHT22;23776;51.592;7.180;2023-12-04T07:03:33;2.20;1.00
37956;DHT22;23776;51.592;7.180;2023-12-04T07:05:58;0.40;99.90
37956;DHT22;23776;51.592;7.180;2023-12-04T07:08:24;2.30;99.90
37956;DHT22;23776;51.592;7.180;2023-12-04T07:10:50;2.30;2.00
37956;DHT22;23776;51.592;7.180;2023-12-04T07:13:15;2.30;99.90
37956;DHT22;23776;51.592;7.180;2023-12-04T07:18:07;2.30;43.50
37956;DHT22;23776;51.592;7.180;2023-12-04T07:20:33;2.40;99.90
37956;DHT22;23776;51.592;7.180;2023-12-04T07:22:58;2.40;1.00
37956;DHT22;23776;51.592;7.180;2023-12-04T07:25:24;2.40;52.10
37956;DHT22;23776;51.592;7.180;2023-12-04T07:27:50;2.40;43.20
37956;DHT22;23776;51.592;7.180;2023-12-04T07:30:16;2.40;89.80
37956;DHT22;23776;51.592;7.180;2023-12-04T07:32:41;2.40;99.90
37956;DHT22;23776;51.592;7.180;2023-12-04T07:35:07;2.50;99.90
37956;DHT22;23776;51.592;7.180;2023-12-04T07:37:33;2.40;99.90
37956;DHT22;23776;51.592;7.180;2023-12-04T07:39:59;2.40;99.90
37956;DHT22;23776;51.592;7.180;2023-12-04T07:42:24;2.50;99.90
37956;DHT22;23776;51.592;7.180;2023-12-04T07:44:50;2.50;1.00
37956;DHT22;23776;51.592;7.180;2023-12-04T07:47:15;2.50;1.00
37956;DHT22;23776;51.592;7.180;2023-12-04T07:49:42;2.50;99.90
37956;DHT22;23776;51.592;7.180;2023-12-04T07:52:08;2.50;99.90
37956;DHT22;23776;51.592;7.180;2023-12-04T07:54:34;2.50;1.00
37956;DHT22;23776;51.592;7.180;2023-12-04T07:56:59;2.50;1.00
37956;DHT22;23776;51.592;7.180;2023-12-04T07:59:25;2.50;99.90
37956;DHT22;23776;51.592;7.180;2023-12-04T08:01:51;2.60;45.60
37956;DHT22;23776;51.592;7.180;2023-12-04T08:04:17;2.60;3.30
37956;DHT22;23776;51.592;7.180;2023-12-04T08:06:42;2.60;99.90
37956;DHT22;23776;51.592;7.180;2023-12-04T08:09:08;2.70;99.90
37956;DHT22;23776;51.592;7.180;2023-12-04T08:11:35;2.70;99.90
37956;DHT22;23776;51.592;7.180;2023-12-04T08:14:01;2.70;1.00
37956;DHT22;23776;51.592;7.180;2023-12-04T08:16:26;2.80;1.00
37956;DHT22;23776;51.592;7.180;2023-12-04T08:18:54;2.80;1.00
37956;DHT22;23776;51.592;7.180;2023-12-04T08:21:20;2.80;3.80
37956;DHT22;23776;51.592;7.180;2023-12-04T08:23:46;2.80;99.90
37956;DHT22;23776;51.592;7.180;2023-12-04T08:26:12;2.80;99.90
37956;DHT22;23776;51.592;7.180;2023-12-04T08:28:37;2.80;1.00
37956;DHT22;23776;51.592;7.180;2023-12-04T08:31:07;2.80;99.90
37956;DHT22;23776;51.592;7.180;2023-12-04T08:33:34;2.90;1.00
37956;DHT22;23776;51.592;7.180;2023-12-04T08:36:00;2.90;99.90
37956;DHT22;23776;51.592;7.180;2023-12-04T08:38:26;2.90;99.90
37956;DHT22;23776;51.592;7.180;2023-12-04T08:40:52;2.90;99.90
37956;DHT22;23776;51.592;7.180;2023-12-04T08:43:18;2.90;99.90
37956;DHT22;23776;51.592;7.180;2023-12-04T08:45:45;3.00;99.90
37956;DHT22;23776;51.592;7.180;2023-12-04T08:48:10;3.00;99.90
37956;DHT22;23776;51.592;7.180;2023-12-04T08:50:36;3.00;99.90
37956;DHT22;23776;51.592;7.180;2023-12-04T08:53:05;3.00;99.90
37956;DHT22;23776;51.592;7.180;2023-12-04T08:55:30;2.90;64.50
37956;DHT22;23776;51.592;7.180;2023-12-04T08:57:56;3.00;99.90
37956;DHT22;23776;51.592;7.180;2023-12-04T09:00:22;3.00;99.90
37956;DHT22;23776;51.592;7.180;2023-12-04T09:02:48;3.00;99.90
37956;DHT22;23776;51.592;7.180;2023-12-04T09:05:14;3.00;99.90
37956;DHT22;23776;51.592;7.180;2023-12-04T09:07:40;3.00;85.80
37956;DHT22;23776;51.592;7.180;2023-12-04T09:10:06;3.00;99.90
37956;DHT22;23776;51.592;7.180;2023-12-04T09:12:31;3.10;99.90
37956;DHT22;23776;51.592;7.180;2023-12-04T09:14:57;3.10;99.90
37956;DHT22;23776;51.592;7.180;2023-12-04T09:17:22;3.10;99.90
37956;DHT22;23776;51.592;7.180;2023-12-04T09:19:48;3.20;99.90
37956;DHT22;23776;51.592;7.180;2023-12-04T09:22:14;3.20;99.90
37956;DHT22;23776;51.592;7.180;2023-12-04T09:24:40;3.30;99.90
37956;DHT22;23776;51.592;7.180;2023-12-04T09:27:05;3.30;99.90
37956;DHT22;23776;51.592;7.180;2023-12-04T09:29:33;3.30;99.90
37956;DHT22;23776;51.592;7.180;2023-12-04T09:31:59;3.30;99.90
37956;DHT22;23776;51.592;7.180;2023-12-04T09:34:24;3.30;1.00
37956;DHT22;23776;51.592;7.180;2023-12-04T09:36:50;3.20;99.90
37956;DHT22;23776;51.592;7.180;2023-12-04T09:39:16;3.90;99.90
37956;DHT22;23776;51.592;7.180;2023-12-04T09:41:43;3.40;99.90
37956;DHT22;23776;51.592;7.180;2023-12-04T09:44:09;3.40;99.90
37956;DHT22;23776;51.592;7.180;2023-12-04T09:46:35;3.50;99.90
37956;DHT22;23776;51.592;7.180;2023-12-04T09:49:02;1.90;99.90
37956;DHT22;23776;51.592;7.180;2023-12-04T09:51:28;3.50;99.90
37956;DHT22;23776;51.592;7.180;2023-12-04T09:53:54;3.50;95.60
37956;DHT22;23776;51.592;7.180;2023-12-04T09:56:22;3.50;92.00
37956;DHT22;23776;51.592;7.180;2023-12-04T09:58:52;3.50;1.00
37956;DHT22;23776;51.592;7.180;2023-12-04T10:01:18;3.50;1.00
37956;DHT22;23776;51.592;7.180;2023-12-04T10:03:44;3.50;23.30
37956;DHT22;23776;51.592;7.180;2023-12-04T10:06:15;3.50;99.90
37956;DHT22;23776;51.592;7.180;2023-12-04T10:08:43;3.70;1.00
37956;DHT22;23776;51.592;7.180;2023-12-04T10:11:10;3.70;1.00
37956;DHT22;23776;51.592;7.180;2023-12-04T10:13:35;3.80;21.20
37956;DHT22;23776;51.592;7.180;2023-12-04T10:16:01;3.80;99.90
37956;DHT22;23776;51.592;7.180;2023-12-04T10:18:29;3.80;99.90
37956;DHT22;23776;51.592;7.180;2023-12-04T10:20:56;3.80;99.90
37956;DHT22;23776;51.592;7.180;2023-12-04T10:23:22;3.80;99.90
37956;DHT22;23776;51.592;7.180;2023-12-04T10:25:49;3.80;99.90
37956;DHT22;23776;51.592;7.180;2023-12-04T10:28:18;3.80;99.90
37956;DHT22;23776;51.592;7.180;2023-12-04T10:30:45;3.80;99.90
37956;DHT22;23776;51.592;7.180;2023-12-04T10:33:11;3.90;99.90
37956;DHT22;23776;51.592;7.180;2023-12-04T10:35:37;3.90;1.00
37956;DHT22;23776;51.592;7.180;2023-12-04T10:38:04;4.00;1.00
37956;DHT22;23776;51.592;7.180;2023-12-04T10:40:35;4.00;99.90
37956;DHT22;23776;51.592;7.180;2023-12-04T10:43:16;4.00;1.00
37956;DHT22;23776;51.592;7.180;2023-12-04T10:45:44;5.40;1.00
37956;DHT22;23776;51.592;7.180;2023-12-04T10:48:11;4.10;1.00
37956;DHT22;23776;51.592;7.180;2023-12-04T10:50:40;4.10;99.90
37956;DHT22;23776;51.592;7.180;2023-12-04T10:53:07;4.00;99.90
37956;DHT22;23776;51.592;7.180;2023-12-04T10:55:34;4.10;99.90
37956;DHT22;23776;51.592;7.180;2023-12-04T10:58:01;4.10;1.00
37956;DHT22;23776;51.592;7.180;2023-12-04T11:00:30;4.10;1.00
37956;DHT22;23776;51.592;7.180;2023-12-04T11:03:48;4.20;1.00
37956;DHT22;23776;51.592;7.180;2023-12-04T11:05:53;4.30;99.90
37956;DHT22;23776;51.592;7.180;2023-12-04T11:08:21;4.20;99.90
37956;DHT22;23776;51.592;7.180;2023-12-04T11:13:44;4.30;99.90
37956;DHT22;23776;51.592;7.180;2023-12-04T11:16:22;4.30;99.90
37956;DHT22;23776;51.592;7.180;2023-12-04T11:19:29;4.40;99.90
37956;DHT22;23776;51.592;7.180;2023-12-04T11:21:58;4.40;1.00
37956;DHT22;23776;51.592;7.180;2023-12-04T11:24:25;3.50;1.00
37956;DHT22;23776;51.592;7.180;2023-12-04T11:26:52;4.40;1.00
37956;DHT22;23776;51.592;7.180;2023-12-04T11:29:18;4.60;28.20
37956;DHT22;23776;51.592;7.180;2023-12-04T11:31:44;4.70;99.90
37956;DHT22;23776;51.592;7.180;2023-12-04T11:34:12;4.70;1.00
37956;DHT22;23776;51.592;7.180;2023-12-04T11:36:38;4.70;1.00
37956;DHT22;23776;51.592;7.180;2023-12-04T11:39:11;4.60;1.00
37956;DHT22;23776;51.592;7.180;2023-12-04T11:41:37;4.70;99.90
37956;DHT22;23776;51.592;7.180;2023-12-04T11:44:03;4.70;1.00
37956;DHT22;23776;51.592;7.180;2023-12-04T11:46:29;4.60;1.00
37956;DHT22;23776;51.592;7.180;2023-12-04T11:49:27;4.60;1.00
37956;DHT22;23776;51.592;7.180;2023-12-04T11:51:55;4.60;12.20
37956;DHT22;23776;51.592;7.180;2023-12-04T11:54:22;4.50;1.00
37956;DHT22;23776;51.592;7.180;2023-12-04T11:59:40;4.40;99.90
37956;DHT22;23776;51.592;7.180;2023-12-04T12:02:08;4.30;99.90
37956;DHT22;23776;51.592;7.180;2023-12-04T12:04:33;4.20;99.90
37956;DHT22;23776;51.592;7.180;2023-12-04T12:06:59;4.20;99.90
37956;DHT22;23776;51.592;7.180;2023-12-04T12:09:29;4.30;1.00
37956;DHT22;23776;51.592;7.180;2023-12-04T12:11:55;4.30;9.40
37956;DHT22;23776;51.592;7.180;2023-12-04T12:14:21;4.30;1.00
37956;DHT22;23776;51.592;7.180;2023-12-04T12:16:47;4.30;1.00
37956;DHT22;23776;51.592;7.180;2023-12-04T12:19:13;4.30;94.20
37956;DHT22;23776;51.592;7.180;2023-12-04T12:21:38;4.30;1.00
37956;DHT22;23776;51.592;7.180;2023-12-04T12:24:11;4.50;99.90
37956;DHT22;23776;51.592;7.180;2023-12-04T12:26:37;4.50;1.00
37956;DHT22;23776;51.592;7.180;2023-12-04T12:29:02;4.40;99.90
37956;DHT22;23776;51.592;7.180;2023-12-04T12:31:28;4.40;99.90
37956;DHT22;23776;51.592;7.180;2023-12-04T12:33:55;4.40;1.00
37956;DHT22;23776;51.592;7.180;2023-12-04T12:36:21;4.40;1.00
37956;DHT22;23776;51.592;7.180;2023-12-04T12:38:47;4.40;1.00
37956;DHT22;23776;51.592;7.180;2023-12-04T12:41:16;4.40;7.90
37956;DHT22;23776;51.592;7.180;2023-12-04T12:43:42;4.40;99.90
37956;DHT22;23776;51.592;7.180;2023-12-04T12:46:08;4.30;1.00
37956;DHT22;23776;51.592;7.180;2023-12-04T12:48:35;4.30;79.90
37956;DHT22;23776;51.592;7.180;2023-12-04T12:51:02;4.90;99.90
37956;DHT22;23776;51.592;7.180;2023-12-04T12:53:28;4.30;1.00
37956;DHT22;23776;51.592;7.180;2023-12-04T12:55:54;4.20;99.90
37956;DHT22;23776;51.592;7.180;2023-12-04T12:58:19;4.20;99.90
37956;DHT22;23776;51.592;7.180;2023-12-04T13:00:46;4.20;99.90
37956;DHT22;23776;51.592;7.180;2023-12-04T13:03:19;4.20;1.00
37956;DHT22;23776;51.592;7.180;2023-12-04T13:05:45;4.10;12.90
37956;DHT22;23776;51.592;7.180;2023-12-04T13:08:12;4.10;15.20
37956;DHT22;23776;51.592;7.180;2023-12-04T13:10:38;4.10;90.20
37956;DHT22;23776;51.592;7.180;2023-12-04T13:13:04;4.00;99.90
37956;DHT22;23776;51.592;7.180;2023-12-04T13:15:29;3.90;1.00
37956;DHT22;23776;51.592;7.180;2023-12-04T13:17:55;3.90;93.80
37956;DHT22;23776;51.592;7.180;2023-12-04T13:20:21;3.80;99.90
37956;DHT22;23776;51.592;7.180;2023-12-04T13:22:48;3.70;99.90
37956;DHT22;23776;51.592;7.180;2023-12-04T13:25:14;3.70;1.00
37956;DHT22;23776;51.592;7.180;2023-12-04T13:27:40;3.80;6.70
37956;DHT22;23776;51.592;7.180;2023-12-04T13:30:06;3.70;1.00
37956;DHT22;23776;51.592;7.180;2023-12-04T13:32:39;3.80;27.30
37956;DHT22;23776;51.592;7.180;2023-12-04T13:35:05;3.80;99.90
37956;DHT22;23776;51.592;7.180;2023-12-04T13:37:33;3.80;99.90
37956;DHT22;23776;51.592;7.180;2023-12-04T13:40:01;3.90;91.50
37956;DHT22;23776;51.592;7.180;2023-12-04T13:42:29;3.90;99.90
37956;DHT22;23776;51.592;7.180;2023-12-04T13:45:13;4.00;99.90
37956;DHT22;23776;51.592;7.180;2023-12-04T13:47:39;4.00;99.90
37956;DHT22;23776;51.592;7.180;2023-12-04T13:50:08;4.00;1.00
37956;DHT22;23776;51.592;7.180;2023-12-04T13:52:35;3.90;1.00
37956;DHT22;23776;51.592;7.180;2023-12-04T13:55:00;4.00;1.00
37956;DHT22;23776;51.592;7.180;2023-12-04T13:57:26;4.00;99.90
37956;DHT22;23776;51.592;7.180;2023-12-04T13:59:54;4.00;99.90
37956;DHT22;23776;51.592;7.180;2023-12-04T14:02:22;4.60;1.00
37956;DHT22;23776;51.592;7.180;2023-12-04T14:04:48;3.90;1.00
37956;DHT22;23776;51.592;7.180;2023-12-04T14:07:14;3.80;1.00
37956;DHT22;23776;51.592;7.180;2023-12-04T14:09:41;3.90;1.00
37956;DHT22;23776;51.592;7.180;2023-12-04T14:12:07;1.50;28.50
37956;DHT22;23776;51.592;7.180;2023-12-04T14:14:33;3.90;21.30
37956;DHT22;23776;51.592;7.180;2023-12-04T14:17:00;3.90;30.30
37956;DHT22;23776;51.592;7.180;2023-12-04T14:19:28;4.00;1.00
37956;DHT22;23776;51.592;7.180;2023-12-04T14:21:54;4.00;1.00
37956;DHT22;23776;51.592;7.180;2023-12-04T14:24:20;3.90;41.10
37956;DHT22;23776;51.592;7.180;2023-12-04T14:26:47;3.90;55.70
37956;DHT22;23776;51.592;7.180;2023-12-04T14:29:13;3.90;99.90
37956;DHT22;23776;51.592;7.180;2023-12-04T14:31:39;3.80;94.60
37956;DHT22;23776;51.592;7.180;2023-12-04T14:34:04;3.80;99.90
37956;DHT22;23776;51.592;7.180;2023-12-04T14:36:30;3.80;99.90
37956;DHT22;23776;51.592;7.180;2023-12-04T14:38:58;3.80;99.90
37956;DHT22;23776;51.592;7.180;2023-12-04T14:41:25;3.80;99.90
37956;DHT22;23776;51.592;7.180;2023-12-04T14:43:51;3.80;99.90
37956;DHT22;23776;51.592;7.180;2023-12-04T14:46:16;3.90;99.90
37956;DHT22;23776;51.592;7.180;2023-12-04T14:48:42;3.90;99.90
37956;DHT22;23776;51.592;7.180;2023-12-04T14:51:08;3.80;99.90
37956;DHT22;23776;51.592;7.180;2023-12-04T14:53:41;3.80;99.90
37956;DHT22;23776;51.592;7.180;2023-12-04T14:56:12;3.70;99.90
37956;DHT22;23776;51.592;7.180;2023-12-04T14:58:53;3.80;99.90
37956;DHT22;23776;51.592;7.180;2023-12-04T15:01:31;3.80;99.90
37956;DHT22;23776;51.592;7.180;2023-12-04T15:04:15;3.80;99.90
37956;DHT22;23776;51.592;7.180;2023-12-04T15:07:01;3.90;99.90
37956;DHT22;23776;51.592;7.180;2023-12-04T15:09:35;3.90;99.90
37956;DHT22;23776;51.592;7.180;2023-12-04T15:12:20;3.90;99.90
37956;DHT22;23776;51.592;7.180;2023-12-04T15:14:59;3.80;99.90
37956;DHT22;23776;51.592;7.180;2023-12-04T15:17:39;3.80;99.90
37956;DHT22;23776;51.592;7.180;2023-12-04T15:20:17;3.90;99.90
37956;DHT22;23776;51.592;7.180;2023-12-04T15:22:57;3.90;99.90
37956;DHT22;23776;51.592;7.180;2023-12-04T15:25:23;3.90;99.90
37956;DHT22;23776;51.592;7.180;2023-12-04T15:27:49;3.80;99.90
37956;DHT22;23776;51.592;7.180;2023-12-04T15:30:16;3.80;99.90
37956;DHT22;23776;51.592;7.180;2023-12-04T15:32:41;3.90;99.90
37956;DHT22;23776;51.592;7.180;2023-12-04T15:35:07;4.00;99.90
37956;DHT22;23776;51.592;7.180;2023-12-04T15:37:34;4.00;99.90
37956;DHT22;23776;51.592;7.180;2023-12-04T15:40:00;4.00;99.90
37956;DHT22;23776;51.592;7.180;2023-12-04T15:42:26;4.00;99.90
37956;DHT22;23776;51.592;7.180;2023-12-04T15:44:54;3.90;99.90
37956;DHT22;23776;51.592;7.180;2023-12-04T15:47:19;3.90;99.90
37956;DHT22;23776;51.592;7.180;2023-12-04T15:49:47;3.90;99.90
37956;DHT22;23776;51.592;7.180;2023-12-04T15:52:13;3.90;99.90
37956;DHT22;23776;51.592;7.180;2023-12-04T15:54:39;3.90;99.90
37956;DHT22;23776;51.592;7.180;2023-12-04T15:57:04;3.90;99.90